createdAt,value
2017-11-14T00:00:06.455Z,94.37
2017-11-14T00:01:06.429Z,94.08
2017-11-14T00:02:06.422Z,94.18
2017-11-14T00:03:06.398Z,93.99
2017-11-14T00:04:06.383Z,94.65
2017-11-14T00:05:06.516Z,94.46
2017-11-14T00:06:06.352Z,94.27
2017-11-14T00:07:06.335Z,94.37
2017-11-14T00:08:06.301Z,94.46
2017-11-14T00:09:06.290Z,94.18
2017-11-14T00:10:06.281Z,94.08
2017-11-14T00:11:06.330Z,94.18
2017-11-14T00:12:06.239Z,94.18
2017-11-14T00:13:06.217Z,94.56
2017-11-14T00:14:06.202Z,94.65
2017-11-14T00:15:06.241Z,94.46
2017-11-14T00:16:06.175Z,94.18
2017-11-14T00:17:06.157Z,94.08
2017-11-14T00:18:06.122Z,94.37
2017-11-14T00:19:06.112Z,94.18
2017-11-14T00:20:06.126Z,94.18
2017-11-14T00:21:06.107Z,94.46
2017-11-14T00:22:06.063Z,94.74
2017-11-14T00:23:06.037Z,94.84
2017-11-14T00:24:06.027Z,94.84
2017-11-14T00:25:06.047Z,94.74
2017-11-14T00:26:06.055Z,94.74
2017-11-14T00:27:05.965Z,94.65
2017-11-14T00:28:05.957Z,94.74
2017-11-14T00:29:05.949Z,94.37
2017-11-14T00:30:05.919Z,94.65
2017-11-14T00:31:05.892Z,94.56
2017-11-14T00:32:06.011Z,94.74
2017-11-14T00:33:05.854Z,94.74
2017-11-14T00:34:05.841Z,94.74
2017-11-14T00:35:05.844Z,94.74
2017-11-14T00:36:05.817Z,94.56
2017-11-14T00:37:05.791Z,94.65
2017-11-14T00:38:05.928Z,94.46
2017-11-14T00:39:05.766Z,93.99
2017-11-14T00:40:05.738Z,94.74
2017-11-14T00:41:05.735Z,94.56
2017-11-14T00:42:05.730Z,94.46
2017-11-14T00:43:05.704Z,94.56
2017-11-14T00:44:05.752Z,94.65
2017-11-14T00:45:06.337Z,94.65
2017-11-14T00:46:05.624Z,94.74
2017-11-14T00:47:05.613Z,94.74
2017-11-14T00:48:05.607Z,94.65
2017-11-14T00:49:05.586Z,94.74
2017-11-14T00:50:05.596Z,94.46
2017-11-14T00:51:05.543Z,94.56
2017-11-14T00:52:05.586Z,94.37
2017-11-14T00:53:05.512Z,94.27
2017-11-14T00:54:05.505Z,94.27
2017-11-14T00:55:05.464Z,94.46
2017-11-14T00:56:05.457Z,94.46
2017-11-14T00:57:05.440Z,94.08
2017-11-14T00:58:05.569Z,94.37
2017-11-14T00:59:05.404Z,94.08
2017-11-14T01:00:05.378Z,94.18
2017-11-14T01:01:05.368Z,93.99
2017-11-14T01:02:05.353Z,94.37
2017-11-14T01:03:05.319Z,94.27
2017-11-14T01:04:05.342Z,94.46
2017-11-14T01:05:05.293Z,94.56
2017-11-14T01:06:05.287Z,93.80
2017-11-14T01:07:05.262Z,93.99
2017-11-14T01:08:05.242Z,93.89
2017-11-14T01:09:05.312Z,94.18
2017-11-14T01:10:05.194Z,94.08
2017-11-14T01:11:05.195Z,93.89
2017-11-14T01:12:05.159Z,93.80
2017-11-14T01:13:05.138Z,93.99
2017-11-14T01:14:05.138Z,93.80
2017-11-14T01:15:05.196Z,93.99
2017-11-14T01:16:05.090Z,94.08
2017-11-14T01:17:05.080Z,93.80
2017-11-14T01:18:05.069Z,94.18
2017-11-14T01:19:05.044Z,94.56
2017-11-14T01:20:05.028Z,93.89
2017-11-14T01:21:05.052Z,94.08
2017-11-14T01:22:04.994Z,94.18
2017-11-14T01:23:04.973Z,94.27
2017-11-14T01:24:04.948Z,94.56
2017-11-14T01:25:05.300Z,94.46
2017-11-14T01:26:04.909Z,94.27
2017-11-14T01:27:04.918Z,94.08
2017-11-14T01:28:04.890Z,94.18
2017-11-14T01:29:04.856Z,93.80
2017-11-14T01:30:04.842Z,93.89
2017-11-14T01:31:04.968Z,93.99
2017-11-14T01:32:04.812Z,93.80
2017-11-14T01:33:04.786Z,94.18
2017-11-14T01:34:04.801Z,93.70
2017-11-14T01:35:04.761Z,94.18
2017-11-14T01:36:04.739Z,94.18
2017-11-14T01:37:05.056Z,94.18
2017-11-14T01:38:04.697Z,94.18
2017-11-14T01:39:04.680Z,94.08
2017-11-14T01:40:04.668Z,93.89
2017-11-14T01:41:04.648Z,93.61
2017-11-14T01:42:04.619Z,93.70
2017-11-14T01:43:04.782Z,93.13
2017-11-14T01:44:04.589Z,93.89
2017-11-14T01:45:04.587Z,94.18
2017-11-14T01:46:04.564Z,93.80
2017-11-14T01:47:04.531Z,93.51
2017-11-14T01:48:04.718Z,93.23
2017-11-14T01:49:04.760Z,93.41
2017-11-14T01:50:04.490Z,93.04
2017-11-14T01:51:04.472Z,93.80
2017-11-14T01:52:04.454Z,93.61
2017-11-14T01:53:04.440Z,93.32
2017-11-14T01:54:04.413Z,93.51
2017-11-14T01:55:04.558Z,93.23
2017-11-14T01:56:04.368Z,93.51
2017-11-14T01:57:04.378Z,93.51
2017-11-14T01:58:04.347Z,93.41
2017-11-14T01:59:04.324Z,93.61
2017-11-14T02:00:04.300Z,93.70
2017-11-14T02:01:04.429Z,93.23
2017-11-14T02:02:04.272Z,93.32
2017-11-14T02:03:04.255Z,93.61
2017-11-14T02:04:04.239Z,93.13
2017-11-14T02:05:04.223Z,93.51
2017-11-14T02:06:04.209Z,93.51
2017-11-14T02:07:04.243Z,93.41
2017-11-14T02:08:04.175Z,94.08
2017-11-14T02:09:04.135Z,93.99
2017-11-14T02:10:04.122Z,93.99
2017-11-14T02:11:04.101Z,93.80
2017-11-14T02:12:04.084Z,93.70
2017-11-14T02:13:04.142Z,93.23
2017-11-14T02:14:04.048Z,93.80
2017-11-14T02:15:04.029Z,93.70
2017-11-14T02:16:04.022Z,93.41
2017-11-14T02:17:04.005Z,93.61
2017-11-14T02:18:03.985Z,93.61
2017-11-14T02:19:04.026Z,93.51
2017-11-14T02:20:03.949Z,93.32
2017-11-14T02:21:03.923Z,93.32
2017-11-14T02:22:03.926Z,93.51
2017-11-14T02:23:03.884Z,93.70
2017-11-14T02:24:03.885Z,93.23
2017-11-14T02:25:03.891Z,92.76
2017-11-14T02:26:03.845Z,92.66
2017-11-14T02:27:03.816Z,92.18
2017-11-14T02:28:03.815Z,92.94
2017-11-14T02:29:04.133Z,92.85
2017-11-14T02:30:03.769Z,93.04
2017-11-14T02:31:03.741Z,93.41
2017-11-14T02:32:03.741Z,93.04
2017-11-14T02:33:03.721Z,93.61
2017-11-14T02:34:03.699Z,92.94
2017-11-14T02:35:03.752Z,93.27
2017-11-14T02:36:03.672Z,93.18
2017-11-14T02:37:03.633Z,92.94
2017-11-14T02:38:03.633Z,93.18
2017-11-14T02:39:03.632Z,92.94
2017-11-14T02:40:03.581Z,92.80
2017-11-14T02:41:03.614Z,92.99
2017-11-14T02:42:03.565Z,93.70
2017-11-14T02:43:03.543Z,93.37
2017-11-14T02:44:03.523Z,93.51
2017-11-14T02:45:03.550Z,93.84
2017-11-14T02:46:03.476Z,94.18
2017-11-14T02:47:03.463Z,94.04
2017-11-14T02:48:03.440Z,94.37
2017-11-14T02:49:03.432Z,94.27
2017-11-14T02:50:03.404Z,94.23
2017-11-14T02:51:03.749Z,94.08
2017-11-14T02:52:03.379Z,94.74
2017-11-14T02:53:03.366Z,94.56
2017-11-14T02:54:03.340Z,94.74
2017-11-14T02:55:03.327Z,94.93
2017-11-14T02:56:03.297Z,94.56
2017-11-14T02:57:03.439Z,94.46
2017-11-14T02:58:03.279Z,94.27
2017-11-14T02:59:03.259Z,93.99
2017-11-14T03:00:03.238Z,93.94
2017-11-14T03:01:03.215Z,94.37
2017-11-14T03:02:03.202Z,94.74
2017-11-14T03:03:03.247Z,94.89
2017-11-14T03:04:03.179Z,95.12
2017-11-14T03:05:03.135Z,95.50
2017-11-14T03:06:03.118Z,95.50
2017-11-14T03:07:03.110Z,94.93
2017-11-14T03:08:03.097Z,95.12
2017-11-14T03:09:03.111Z,95.03
2017-11-14T03:10:03.060Z,95.03
2017-11-14T03:11:03.032Z,95.03
2017-11-14T03:12:03.012Z,95.31
2017-11-14T03:13:02.995Z,95.22
2017-11-14T03:14:03.039Z,95.22
2017-11-14T03:15:02.968Z,95.22
2017-11-14T03:16:02.958Z,95.60
2017-11-14T03:17:02.933Z,95.31
2017-11-14T03:18:02.924Z,95.22
2017-11-14T03:19:02.900Z,95.31
2017-11-14T03:20:03.209Z,94.65
2017-11-14T03:21:02.857Z,95.41
2017-11-14T03:22:02.836Z,95.41
2017-11-14T03:23:02.828Z,95.41
2017-11-14T03:24:02.815Z,95.31
2017-11-14T03:25:02.791Z,95.31
2017-11-14T03:26:02.840Z,95.41
2017-11-14T03:27:02.764Z,95.22
2017-11-14T03:28:02.730Z,95.22
2017-11-14T03:29:02.724Z,95.12
2017-11-14T03:30:02.700Z,95.31
2017-11-14T03:31:02.674Z,95.31
2017-11-14T03:32:02.807Z,95.60
2017-11-14T03:33:02.636Z,95.31
2017-11-14T03:34:02.626Z,95.22
2017-11-14T03:35:02.602Z,95.12
2017-11-14T03:36:02.598Z,95.31
2017-11-14T03:37:02.566Z,95.50
2017-11-14T03:38:02.622Z,95.22
2017-11-14T03:39:02.530Z,95.22
2017-11-14T03:40:02.528Z,95.12
2017-11-14T03:41:02.514Z,95.12
2017-11-14T03:42:02.479Z,95.22
2017-11-14T03:43:02.465Z,95.12
2017-11-14T03:44:02.496Z,95.31
2017-11-14T03:45:02.433Z,95.50
2017-11-14T03:46:02.420Z,95.50
2017-11-14T03:47:02.383Z,95.22
2017-11-14T03:48:02.377Z,95.12
2017-11-14T03:49:02.353Z,95.41
2017-11-14T03:50:02.384Z,95.31
2017-11-14T03:51:02.329Z,95.22
2017-11-14T03:52:02.297Z,95.12
2017-11-14T03:53:02.292Z,95.41
2017-11-14T03:54:02.272Z,95.50
2017-11-14T03:55:02.259Z,95.79
2017-11-14T03:56:02.386Z,95.79
2017-11-14T03:57:02.220Z,95.88
2017-11-14T03:58:02.199Z,95.69
2017-11-14T03:59:02.165Z,95.79
2017-11-14T04:00:02.162Z,95.50
2017-11-14T04:01:02.142Z,95.60
2017-11-14T04:02:02.264Z,95.60
2017-11-14T04:03:02.115Z,95.69
2017-11-14T04:04:02.081Z,95.69
2017-11-14T04:05:02.083Z,95.88
2017-11-14T04:06:02.048Z,95.60
2017-11-14T04:07:02.032Z,95.79
2017-11-14T04:08:02.152Z,95.79
2017-11-14T04:09:02.024Z,96.08
2017-11-14T04:10:01.984Z,95.88
2017-11-14T04:11:01.967Z,95.50
2017-11-14T04:12:01.937Z,95.60
2017-11-14T04:13:01.937Z,95.50
2017-11-14T04:14:01.963Z,95.31
2017-11-14T04:15:01.902Z,95.12
2017-11-14T04:16:01.878Z,95.12
2017-11-14T04:17:01.855Z,95.07
2017-11-14T04:18:01.845Z,95.26
2017-11-14T04:19:01.824Z,95.84
2017-11-14T04:20:01.940Z,95.98
2017-11-14T04:21:01.790Z,95.55
2017-11-14T04:22:01.761Z,95.36
2017-11-14T04:23:01.750Z,96.22
2017-11-14T04:24:01.736Z,95.45
2017-11-14T04:25:01.725Z,95.84
2017-11-14T04:26:01.717Z,95.84
2017-11-14T04:27:01.688Z,96.31
2017-11-14T04:28:01.647Z,96.31
2017-11-14T04:29:01.641Z,96.22
2017-11-14T04:30:01.631Z,96.03
2017-11-14T04:31:01.748Z,96.36
2017-11-14T04:32:01.597Z,96.12
2017-11-14T04:33:01.580Z,96.12
2017-11-14T04:34:01.563Z,96.36
2017-11-14T04:35:01.524Z,96.26
2017-11-14T04:36:01.520Z,96.36
2017-11-14T04:37:01.649Z,96.41
2017-11-14T04:38:01.470Z,96.36
2017-11-14T04:39:01.456Z,96.26
2017-11-14T04:40:01.448Z,96.17
2017-11-14T04:41:01.417Z,96.45
2017-11-14T04:42:01.417Z,96.26
2017-11-14T04:43:01.450Z,96.26
2017-11-14T04:44:01.359Z,96.36
2017-11-14T04:45:01.344Z,95.88
2017-11-14T04:46:01.340Z,96.08
2017-11-14T04:47:01.306Z,96.17
2017-11-14T04:48:01.306Z,96.22
2017-11-14T04:49:01.341Z,96.64
2017-11-14T04:50:01.266Z,96.36
2017-11-14T04:51:01.256Z,96.36
2017-11-14T04:52:01.219Z,95.98
2017-11-14T04:53:01.201Z,96.08
2017-11-14T04:54:01.183Z,96.03
2017-11-14T04:55:01.220Z,96.26
2017-11-14T04:56:01.161Z,96.08
2017-11-14T04:57:01.129Z,96.08
2017-11-14T04:58:01.127Z,96.12
2017-11-14T04:59:01.108Z,96.26
2017-11-14T05:00:01.369Z,96.17
2017-11-14T05:01:01.067Z,96.26
2017-11-14T05:02:01.055Z,96.26
2017-11-14T05:03:01.048Z,96.26
2017-11-14T05:04:01.062Z,96.36
2017-11-14T05:05:01.014Z,95.79
2017-11-14T05:06:01.127Z,95.31
2017-11-14T05:07:00.958Z,95.07
2017-11-14T05:08:00.946Z,95.26
2017-11-14T05:09:00.919Z,94.23
2017-11-14T05:10:00.899Z,94.13
2017-11-14T05:11:00.888Z,94.42
2017-11-14T05:12:00.908Z,94.13
2017-11-14T05:13:00.838Z,94.60
2017-11-14T05:14:01.192Z,94.42
2017-11-14T05:15:00.803Z,94.98
2017-11-14T05:16:00.810Z,95.17
2017-11-14T05:17:00.784Z,95.07
2017-11-14T05:18:00.759Z,95.17
2017-11-14T05:19:00.745Z,95.17
2017-11-14T05:20:00.763Z,95.36
2017-11-14T05:21:00.697Z,94.98
2017-11-14T05:22:00.694Z,95.36
2017-11-14T05:23:00.674Z,95.74
2017-11-14T05:24:00.656Z,96.03
2017-11-14T05:25:00.773Z,95.65
2017-11-14T05:26:00.630Z,96.22
2017-11-14T05:27:00.587Z,96.22
2017-11-14T05:28:00.569Z,96.41
2017-11-14T05:29:00.560Z,96.31
2017-11-14T05:30:00.546Z,96.41
2017-11-14T05:31:00.566Z,96.03
2017-11-14T05:32:00.496Z,96.22
2017-11-14T05:33:00.476Z,96.41
2017-11-14T05:34:00.478Z,96.22
2017-11-14T05:35:00.450Z,96.31
2017-11-14T05:36:00.441Z,96.31
2017-11-14T05:37:00.479Z,96.22
2017-11-14T05:38:00.404Z,95.74
2017-11-14T05:39:00.379Z,96.03
2017-11-14T05:40:00.368Z,96.22
2017-11-14T05:41:00.345Z,96.12
2017-11-14T05:42:00.328Z,95.93
2017-11-14T05:43:00.343Z,96.12
2017-11-14T05:44:00.291Z,96.22
2017-11-14T05:45:00.273Z,96.41
2017-11-14T05:46:00.256Z,96.50
2017-11-14T05:47:00.230Z,96.03
2017-11-14T05:48:00.315Z,96.31
2017-11-14T05:49:00.204Z,96.03
2017-11-14T05:50:00.184Z,96.12
2017-11-14T05:51:00.169Z,96.31
2017-11-14T05:52:00.138Z,96.41
2017-11-14T05:53:01.112Z,95.36
2017-11-14T05:54:00.157Z,95.93
2017-11-14T05:55:00.082Z,95.26
2017-11-14T05:56:00.068Z,94.60
2017-11-14T05:57:00.052Z,95.07
2017-11-14T05:58:00.052Z,94.70
2017-11-14T05:59:00.020Z,94.89
2017-11-14T06:00:00.031Z,95.07
2017-11-14T06:00:59.982Z,94.98
2017-11-14T06:01:59.968Z,95.55
2017-11-14T06:02:59.950Z,95.45
2017-11-14T06:04:00.272Z,95.36
2017-11-14T06:04:59.932Z,95.36
2017-11-14T06:05:59.897Z,95.84
2017-11-14T06:06:59.877Z,95.65
2017-11-14T06:07:59.848Z,96.41
2017-11-14T06:08:59.838Z,95.93
2017-11-14T06:09:59.870Z,95.65
2017-11-14T06:10:59.789Z,95.84
2017-11-14T06:11:59.776Z,95.84
2017-11-14T06:12:59.767Z,96.03
2017-11-14T06:13:59.736Z,96.31
2017-11-14T06:14:59.727Z,96.22
2017-11-14T06:15:59.742Z,96.22
2017-11-14T06:16:59.704Z,96.22
2017-11-14T06:17:59.670Z,96.22
2017-11-14T06:18:59.649Z,96.41
2017-11-14T06:20:00.247Z,95.84
2017-11-14T06:20:59.688Z,95.36
2017-11-14T06:21:59.592Z,95.65
2017-11-14T06:22:59.583Z,95.45
2017-11-14T06:23:59.579Z,95.74
2017-11-14T06:24:59.550Z,95.55
2017-11-14T06:25:59.526Z,95.45
2017-11-14T06:26:59.864Z,95.45
2017-11-14T06:27:59.485Z,95.36
2017-11-14T06:28:59.466Z,96.03
2017-11-14T06:29:59.475Z,95.65
2017-11-14T06:30:59.447Z,95.65
2017-11-14T06:31:59.417Z,95.17
2017-11-14T06:32:59.430Z,95.45
2017-11-14T06:33:59.443Z,95.07
2017-11-14T06:34:59.364Z,95.36
2017-11-14T06:35:59.357Z,95.17
2017-11-14T06:36:59.351Z,95.17
2017-11-14T06:37:59.314Z,95.26
2017-11-14T06:38:59.296Z,95.26
2017-11-14T06:39:59.435Z,95.07
2017-11-14T06:40:59.258Z,95.45
2017-11-14T06:41:59.243Z,94.51
2017-11-14T06:42:59.217Z,94.70
2017-11-14T06:43:59.196Z,94.60
2017-11-14T06:44:59.176Z,94.42
2017-11-14T06:45:59.228Z,94.13
2017-11-14T06:46:59.159Z,94.13
2017-11-14T06:47:59.152Z,94.04
2017-11-14T06:48:59.108Z,94.32
2017-11-14T06:49:59.112Z,94.42
2017-11-14T06:50:59.138Z,94.98
2017-11-14T06:51:59.064Z,94.60
2017-11-14T06:52:59.053Z,94.51
2017-11-14T06:53:59.020Z,95.07
2017-11-14T06:54:59.011Z,94.51
2017-11-14T06:55:58.993Z,94.98
2017-11-14T06:56:59.124Z,94.60
2017-11-14T06:57:58.953Z,95.17
2017-11-14T06:58:58.929Z,94.98
2017-11-14T06:59:58.948Z,95.26
2017-11-14T07:00:58.905Z,95.26
2017-11-14T07:01:58.901Z,95.26
2017-11-14T07:02:58.995Z,95.36
2017-11-14T07:03:58.868Z,95.17
2017-11-14T07:04:58.830Z,95.07
2017-11-14T07:05:58.810Z,95.26
2017-11-14T07:06:58.781Z,95.45
2017-11-14T07:07:58.763Z,95.45
2017-11-14T07:08:58.775Z,95.74
2017-11-14T07:09:58.754Z,95.45
2017-11-14T07:10:58.796Z,95.26
2017-11-14T07:11:58.703Z,95.26
2017-11-14T07:12:58.687Z,95.45
2017-11-14T07:13:58.670Z,95.84
2017-11-14T07:14:58.642Z,95.65
2017-11-14T07:15:58.616Z,95.74
2017-11-14T07:16:58.675Z,95.65
2017-11-14T07:17:58.598Z,95.55
2017-11-14T07:18:58.575Z,95.74
2017-11-14T07:19:58.562Z,95.36
2017-11-14T07:20:58.681Z,95.26
2017-11-14T07:21:58.515Z,95.84
2017-11-14T07:22:58.501Z,95.26
2017-11-14T07:23:58.509Z,95.55
2017-11-14T07:24:58.871Z,95.65
2017-11-14T07:25:58.540Z,96.03
2017-11-14T07:26:58.840Z,95.55
2017-11-14T07:27:58.611Z,96.22
2017-11-14T07:28:58.415Z,95.45
2017-11-14T07:29:58.376Z,95.55
2017-11-14T07:30:58.347Z,95.65
2017-11-14T07:31:58.326Z,95.69
2017-11-14T07:32:58.343Z,95.60
2017-11-14T07:33:58.292Z,95.22
2017-11-14T07:34:58.302Z,95.88
2017-11-14T07:35:58.256Z,95.22
2017-11-14T07:36:58.260Z,95.03
2017-11-14T07:37:58.318Z,94.93
2017-11-14T07:38:58.225Z,94.37
2017-11-14T07:39:58.193Z,94.46
2017-11-14T07:40:58.177Z,94.18
2017-11-14T07:41:58.168Z,94.46
2017-11-14T07:42:58.149Z,94.56
2017-11-14T07:43:59.787Z,94.56
2017-11-14T07:44:58.121Z,94.93
2017-11-14T07:45:58.193Z,94.37
2017-11-14T07:46:58.138Z,94.65
2017-11-14T07:47:58.063Z,94.65
2017-11-14T07:48:58.027Z,94.74
2017-11-14T07:49:58.161Z,95.03
2017-11-14T07:50:58.002Z,94.74
2017-11-14T07:51:58.032Z,95.03
2017-11-14T07:52:57.973Z,94.37
2017-11-14T07:53:57.937Z,93.99
2017-11-14T07:54:57.943Z,94.18
2017-11-14T07:55:57.946Z,94.18
2017-11-14T07:56:57.897Z,94.46
2017-11-14T07:57:57.875Z,94.18
2017-11-14T07:58:57.874Z,94.65
2017-11-14T07:59:57.857Z,94.56
2017-11-14T08:00:57.983Z,94.27
2017-11-14T08:01:57.803Z,94.74
2017-11-14T08:02:57.794Z,94.18
2017-11-14T08:03:57.771Z,94.37
2017-11-14T08:04:57.755Z,93.80
2017-11-14T08:05:57.730Z,93.51
2017-11-14T08:06:57.778Z,93.80
2017-11-14T08:07:57.713Z,93.70
2017-11-14T08:08:57.683Z,93.89
2017-11-14T08:09:57.671Z,93.32
2017-11-14T08:10:57.646Z,93.51
2017-11-14T08:11:57.630Z,94.08
2017-11-14T08:12:57.639Z,94.18
2017-11-14T08:13:57.600Z,93.99
2017-11-14T08:14:57.571Z,93.80
2017-11-14T08:15:57.576Z,94.18
2017-11-14T08:16:57.681Z,93.89
2017-11-14T08:17:57.533Z,94.18
2017-11-14T08:18:57.504Z,94.18
2017-11-14T08:19:57.494Z,94.08
2017-11-14T08:20:57.474Z,93.80
2017-11-14T08:21:57.457Z,94.27
2017-11-14T08:22:57.503Z,94.46
2017-11-14T08:23:57.421Z,94.08
2017-11-14T08:24:57.413Z,93.13
2017-11-14T08:25:57.391Z,93.41
2017-11-14T08:26:57.364Z,94.08
2017-11-14T08:27:57.378Z,94.08
2017-11-14T08:28:57.352Z,94.18
2017-11-14T08:29:57.312Z,94.65
2017-11-14T08:30:57.314Z,94.46
2017-11-14T08:31:57.285Z,94.08
2017-11-14T08:32:57.249Z,94.27
2017-11-14T08:33:57.237Z,94.46
2017-11-14T08:34:57.237Z,94.37
2017-11-14T08:35:57.261Z,94.37
2017-11-14T08:36:57.178Z,94.27
2017-11-14T08:37:57.180Z,93.89
2017-11-14T08:38:57.161Z,94.18
2017-11-14T08:39:57.161Z,94.27
2017-11-14T08:40:57.135Z,94.27
2017-11-14T08:41:57.170Z,94.37
2017-11-14T08:42:57.074Z,93.99
2017-11-14T08:43:57.069Z,93.80
2017-11-14T08:44:57.046Z,93.80
2017-11-14T08:45:57.023Z,93.70
2017-11-14T08:46:57.018Z,94.08
2017-11-14T08:47:57.299Z,93.89
2017-11-14T08:48:56.980Z,93.23
2017-11-14T08:49:56.971Z,94.08
2017-11-14T08:50:57.028Z,94.08
2017-11-14T08:51:56.926Z,93.32
2017-11-14T08:52:56.899Z,93.41
2017-11-14T08:53:57.042Z,93.41
2017-11-14T08:54:56.879Z,93.51
2017-11-14T08:55:56.847Z,93.13
2017-11-14T08:56:56.847Z,93.70
2017-11-14T08:57:56.833Z,93.23
2017-11-14T08:58:56.925Z,93.41
2017-11-14T08:59:56.881Z,93.41
2017-11-14T09:00:57.157Z,93.13
2017-11-14T09:01:56.755Z,93.61
2017-11-14T09:02:56.742Z,93.51
2017-11-14T09:03:56.715Z,93.61
2017-11-14T09:04:56.698Z,93.32
2017-11-14T09:05:56.855Z,93.51
2017-11-14T09:06:57.100Z,93.13
2017-11-14T09:07:56.640Z,93.61
2017-11-14T09:08:56.698Z,93.04
2017-11-14T09:09:56.629Z,93.61
2017-11-14T09:10:56.595Z,93.51
2017-11-14T09:11:56.597Z,93.41
2017-11-14T09:12:56.597Z,92.94
2017-11-14T09:13:56.567Z,93.61
2017-11-14T09:14:56.516Z,93.41
2017-11-14T09:15:56.510Z,93.32
2017-11-14T09:16:56.577Z,93.41
2017-11-14T09:17:56.489Z,93.32
2017-11-14T09:18:56.459Z,93.41
2017-11-14T09:19:56.442Z,93.32
2017-11-14T09:20:56.430Z,92.94
2017-11-14T09:21:56.713Z,93.04
2017-11-14T09:22:56.811Z,93.41
2017-11-14T09:23:56.365Z,93.23
2017-11-14T09:24:56.544Z,93.51
2017-11-14T09:25:56.327Z,93.56
2017-11-14T09:26:56.316Z,93.56
2017-11-14T09:27:56.303Z,92.76
2017-11-14T09:28:56.630Z,93.27
2017-11-14T09:29:56.274Z,93.08
2017-11-14T09:30:56.261Z,92.90
2017-11-14T09:31:56.241Z,93.37
2017-11-14T09:32:56.217Z,93.56
2017-11-14T09:33:56.215Z,93.46
2017-11-14T09:34:56.279Z,92.90
2017-11-14T09:35:56.255Z,93.46
2017-11-14T09:36:56.222Z,93.08
2017-11-14T09:37:56.122Z,92.80
2017-11-14T09:38:56.100Z,93.18
2017-11-14T09:39:56.095Z,92.80
2017-11-14T09:40:56.140Z,92.71
2017-11-14T09:41:56.094Z,92.80
2017-11-14T09:42:56.040Z,92.23
2017-11-14T09:43:56.028Z,92.52
2017-11-14T09:44:56.004Z,92.33
2017-11-14T09:45:55.979Z,92.23
2017-11-14T09:46:56.033Z,92.52
2017-11-14T09:47:56.137Z,92.52
2017-11-14T09:48:55.940Z,92.52
2017-11-14T09:49:55.940Z,92.71
2017-11-14T09:50:55.904Z,92.33
2017-11-14T09:51:55.889Z,92.52
2017-11-14T09:52:55.930Z,92.23
2017-11-14T09:53:55.875Z,92.61
2017-11-14T09:54:55.868Z,92.33
2017-11-14T09:55:55.807Z,92.33
2017-11-14T09:56:55.922Z,92.71
2017-11-14T09:57:55.793Z,92.23
2017-11-14T09:58:55.769Z,92.71
2017-11-14T09:59:55.829Z,92.71
2017-11-14T10:00:55.730Z,92.61
2017-11-14T10:01:55.764Z,93.46
2017-11-14T10:02:55.703Z,93.27
2017-11-14T10:03:55.736Z,92.52
2017-11-14T10:04:55.694Z,92.33
2017-11-14T10:05:56.519Z,92.52
2017-11-14T10:06:55.635Z,93.27
2017-11-14T10:07:55.620Z,93.27
2017-11-14T10:08:55.604Z,92.61
2017-11-14T10:09:56.321Z,92.61
2017-11-14T10:10:55.599Z,92.33
2017-11-14T10:11:55.538Z,92.52
2017-11-14T10:12:55.608Z,92.85
2017-11-14T10:13:55.524Z,93.13
2017-11-14T10:14:55.507Z,92.66
2017-11-14T10:15:55.483Z,91.71
2017-11-14T10:16:55.460Z,92.37
2017-11-14T10:17:55.496Z,92.28
2017-11-14T10:18:55.479Z,91.42
2017-11-14T10:19:55.786Z,92.09
2017-11-14T10:20:55.384Z,91.99
2017-11-14T10:21:55.378Z,91.42
2017-11-14T10:22:55.358Z,92.18
2017-11-14T10:23:55.350Z,91.24
2017-11-14T10:24:55.316Z,91.14
2017-11-14T10:25:55.366Z,91.42
2017-11-14T10:26:55.314Z,91.24
2017-11-14T10:27:55.288Z,91.42
2017-11-14T10:28:55.265Z,91.42
2017-11-14T10:29:55.541Z,91.24
2017-11-14T10:30:55.231Z,91.14
2017-11-14T10:31:55.228Z,91.14
2017-11-14T10:32:55.270Z,90.95
2017-11-14T10:33:55.177Z,90.85
2017-11-14T10:34:55.178Z,91.33
2017-11-14T10:35:55.578Z,90.28
2017-11-14T10:36:55.193Z,90.85
2017-11-14T10:37:55.130Z,90.95
2017-11-14T10:38:55.093Z,91.04
2017-11-14T10:39:55.077Z,91.33
2017-11-14T10:40:55.049Z,91.14
2017-11-14T10:41:55.187Z,91.24
2017-11-14T10:42:55.031Z,90.95
2017-11-14T10:43:55.036Z,91.24
2017-11-14T10:44:55.001Z,91.52
2017-11-14T10:45:54.983Z,91.33
2017-11-14T10:46:54.962Z,92.09
2017-11-14T10:47:55.093Z,91.42
2017-11-14T10:48:54.919Z,92.18
2017-11-14T10:49:54.933Z,92.18
2017-11-14T10:50:55.162Z,92.18
2017-11-14T10:51:54.903Z,92.09
2017-11-14T10:52:54.879Z,91.89
2017-11-14T10:53:54.966Z,91.71
2017-11-14T10:54:54.825Z,91.61
2017-11-14T10:55:54.843Z,91.80
2017-11-14T10:56:55.964Z,91.42
2017-11-14T10:57:54.770Z,92.09
2017-11-14T10:58:54.769Z,91.42
2017-11-14T10:59:54.797Z,91.75
2017-11-14T11:00:54.733Z,91.33
2017-11-14T11:01:54.713Z,91.85
2017-11-14T11:02:54.689Z,91.56
2017-11-14T11:03:54.673Z,91.04
2017-11-14T11:04:54.651Z,91.38
2017-11-14T11:05:54.791Z,90.66
2017-11-14T11:06:54.623Z,91.09
2017-11-14T11:07:55.340Z,90.33
2017-11-14T11:08:54.600Z,90.99
2017-11-14T11:09:54.609Z,91.38
2017-11-14T11:10:54.551Z,90.52
2017-11-14T11:11:54.678Z,90.52
2017-11-14T11:12:54.601Z,90.80
2017-11-14T11:13:54.537Z,89.67
2017-11-14T11:14:54.492Z,90.52
2017-11-14T11:15:54.495Z,89.95
2017-11-14T11:16:54.469Z,89.95
2017-11-14T11:17:54.528Z,90.23
2017-11-14T11:18:54.474Z,90.71
2017-11-14T11:19:54.409Z,90.61
2017-11-14T11:20:54.406Z,90.52
2017-11-14T11:21:54.368Z,90.33
2017-11-14T11:22:54.375Z,90.33
2017-11-14T11:23:54.387Z,89.86
2017-11-14T11:24:54.362Z,90.52
2017-11-14T11:25:54.320Z,89.86
2017-11-14T11:26:54.377Z,89.95
2017-11-14T11:27:54.276Z,90.33
2017-11-14T11:28:54.267Z,90.14
2017-11-14T11:29:54.254Z,89.76
2017-11-14T11:30:54.229Z,90.42
2017-11-14T11:31:54.379Z,90.90
2017-11-14T11:32:54.205Z,90.42
2017-11-14T11:33:54.233Z,89.38
2017-11-14T11:34:54.156Z,88.81
2017-11-14T11:35:54.167Z,89.47
2017-11-14T11:36:54.146Z,89.71
2017-11-14T11:37:54.155Z,89.67
2017-11-14T11:38:54.154Z,89.57
2017-11-14T11:39:54.150Z,89.33
2017-11-14T11:40:54.076Z,89.33
2017-11-14T11:41:54.391Z,88.85
2017-11-14T11:42:54.029Z,89.14
2017-11-14T11:43:54.014Z,88.28
2017-11-14T11:44:54.013Z,88.09
2017-11-14T11:45:54.002Z,88.47
2017-11-14T11:46:54.002Z,87.52
2017-11-14T11:47:54.328Z,88.19
2017-11-14T11:48:53.938Z,87.90
2017-11-14T11:49:53.938Z,88.47
2017-11-14T11:50:53.915Z,88.47
2017-11-14T11:51:53.900Z,88.28
2017-11-14T11:52:53.888Z,87.81
2017-11-14T11:53:54.223Z,87.14
2017-11-14T11:54:53.900Z,87.14
2017-11-14T11:55:53.844Z,87.34
2017-11-14T11:56:53.819Z,86.10
2017-11-14T11:57:53.809Z,86.00
2017-11-14T11:58:53.772Z,85.81
2017-11-14T11:59:53.822Z,86.38
2017-11-14T12:00:53.743Z,85.53
2017-11-14T12:01:53.736Z,85.72
2017-11-14T12:02:53.711Z,86.38
2017-11-14T12:03:53.699Z,85.53
2017-11-14T12:04:53.691Z,84.67
2017-11-14T12:05:53.742Z,84.95
2017-11-14T12:06:53.734Z,85.81
2017-11-14T12:07:53.636Z,85.24
2017-11-14T12:08:53.633Z,85.15
2017-11-14T12:09:53.598Z,84.67
2017-11-14T12:10:54.268Z,84.58
2017-11-14T12:11:53.661Z,84.67
2017-11-14T12:12:53.584Z,84.77
2017-11-14T12:13:53.557Z,84.95
2017-11-14T12:14:53.532Z,84.48
2017-11-14T12:15:53.527Z,84.86
2017-11-14T12:16:53.496Z,84.58
2017-11-14T12:17:53.629Z,85.05
2017-11-14T12:18:53.455Z,84.48
2017-11-14T12:19:53.462Z,84.01
2017-11-14T12:20:53.439Z,82.96
2017-11-14T12:21:53.433Z,83.34
2017-11-14T12:22:53.412Z,84.01
2017-11-14T12:23:53.470Z,83.53
2017-11-14T12:24:53.362Z,83.15
2017-11-14T12:25:53.352Z,83.44
2017-11-14T12:26:53.350Z,82.96
2017-11-14T12:27:53.312Z,82.91
2017-11-14T12:28:53.311Z,82.77
2017-11-14T12:29:53.347Z,83.19
2017-11-14T12:30:53.274Z,83.48
2017-11-14T12:31:53.285Z,82.81
2017-11-14T12:32:53.255Z,82.15
2017-11-14T12:33:53.231Z,82.71
2017-11-14T12:34:53.223Z,82.34
2017-11-14T12:35:53.277Z,81.48
2017-11-14T12:36:53.189Z,83.00
2017-11-14T12:37:53.173Z,82.91
2017-11-14T12:38:53.186Z,82.24
2017-11-14T12:39:53.140Z,82.15
2017-11-14T12:40:53.137Z,81.20
2017-11-14T12:41:53.334Z,82.15
2017-11-14T12:42:53.087Z,82.05
2017-11-14T12:43:53.758Z,81.96
2017-11-14T12:44:53.066Z,82.24
2017-11-14T12:45:53.044Z,82.71
2017-11-14T12:46:53.040Z,82.58
2017-11-14T12:47:53.150Z,82.29
2017-11-14T12:48:53.000Z,82.29
2017-11-14T12:49:53.010Z,82.43
2017-11-14T12:50:53.097Z,83.19
2017-11-14T12:51:52.939Z,83.06